sensor_id;sensor_type;location;lat;lon;timestamp;temperature;humidity
74153;DHT22;62505;46.070;14.492;2022-08-01T00:00:17;25.60;70.30
74153;DHT22;62505;46.070;14.492;2022-08-01T00:02:44;25.60;70.10
74153;DHT22;62505;46.070;14.492;2022-08-01T00:05:11;25.60;70.00
74153;DHT22;62505;46.070;14.492;2022-08-01T00:07:38;25.60;70.00
74153;DHT22;62505;46.070;14.492;2022-08-01T00:10:09;25.60;69.90
74153;DHT22;62505;46.070;14.492;2022-08-01T00:12:36;25.60;70.00
74153;DHT22;62505;46.070;14.492;2022-08-01T00:15:04;25.60;69.90
74153;DHT22;62505;46.070;14.492;2022-08-01T00:17:32;25.60;69.80
74153;DHT22;62505;46.070;14.492;2022-08-01T00:19:59;25.60;69.80
74153;DHT22;62505;46.070;14.492;2022-08-01T00:22:27;25.60;69.80
74153;DHT22;62505;46.070;14.492;2022-08-01T00:24:54;25.50;69.60
74153;DHT22;62505;46.070;14.492;2022-08-01T00:27:21;25.60;69.80
74153;DHT22;62505;46.070;14.492;2022-08-01T00:29:48;25.50;69.60
74153;DHT22;62505;46.070;14.492;2022-08-01T00:32:15;25.60;69.80
74153;DHT22;62505;46.070;14.492;2022-08-01T00:34:43;25.60;69.70
74153;DHT22;62505;46.070;14.492;2022-08-01T00:37:11;25.50;69.80
74153;DHT22;62505;46.070;14.492;2022-08-01T00:39:37;25.50;69.70
74153;DHT22;62505;46.070;14.492;2022-08-01T00:42:06;25.60;69.70
74153;DHT22;62505;46.070;14.492;2022-08-01T00:44:33;25.50;69.70
74153;DHT22;62505;46.070;14.492;2022-08-01T00:47:00;25.50;69.80
74153;DHT22;62505;46.070;14.492;2022-08-01T00:49:27;25.50;69.80
74153;DHT22;62505;46.070;14.492;2022-08-01T00:51:56;25.50;69.80
74153;DHT22;62505;46.070;14.492;2022-08-01T00:54:24;25.50;69.70
74153;DHT22;62505;46.070;14.492;2022-08-01T00:56:52;25.50;69.70
74153;DHT22;62505;46.070;14.492;2022-08-01T00:59:21;25.50;69.80
74153;DHT22;62505;46.070;14.492;2022-08-01T01:01:48;25.50;69.70
74153;DHT22;62505;46.070;14.492;2022-08-01T01:04:19;25.50;69.80
74153;DHT22;62505;46.070;14.492;2022-08-01T01:06:57;25.50;69.80
74153;DHT22;62505;46.070;14.492;2022-08-01T01:09:33;25.50;69.70
74153;DHT22;62505;46.070;14.492;2022-08-01T01:12:15;25.50;69.80
74153;DHT22;62505;46.070;14.492;2022-08-01T01:14:47;25.50;69.70
74153;DHT22;62505;46.070;14.492;2022-08-01T01:17:21;25.50;69.70
74153;DHT22;62505;46.070;14.492;2022-08-01T01:19:54;25.50;69.70
74153;DHT22;62505;46.070;14.492;2022-08-01T01:22:33;25.50;69.70
74153;DHT22;62505;46.070;14.492;2022-08-01T01:25:17;25.50;69.80
74153;DHT22;62505;46.070;14.492;2022-08-01T01:27:51;25.50;69.60
74153;DHT22;62505;46.070;14.492;2022-08-01T01:30:25;25.50;69.60
74153;DHT22;62505;46.070;14.492;2022-08-01T01:33:00;25.50;69.70
74153;DHT22;62505;46.070;14.492;2022-08-01T01:35:31;25.50;69.80
74153;DHT22;62505;46.070;14.492;2022-08-01T01:38:04;25.50;70.50
74153;DHT22;62505;46.070;14.492;2022-08-01T01:40:31;25.50;69.70
74153;DHT22;62505;46.070;14.492;2022-08-01T01:43:00;25.50;69.70
74153;DHT22;62505;46.070;14.492;2022-08-01T01:45:28;25.50;69.80
74153;DHT22;62505;46.070;14.492;2022-08-01T01:47:57;25.50;69.70
74153;DHT22;62505;46.070;14.492;2022-08-01T01:50:25;25.50;69.80
74153;DHT22;62505;46.070;14.492;2022-08-01T01:52:54;25.50;69.80
74153;DHT22;62505;46.070;14.492;2022-08-01T01:55:22;25.50;69.80
74153;DHT22;62505;46.070;14.492;2022-08-01T01:57:50;25.50;69.80
74153;DHT22;62505;46.070;14.492;2022-08-01T02:00:18;25.50;69.70
74153;DHT22;62505;46.070;14.492;2022-08-01T02:02:47;25.50;70.70
74153;DHT22;62505;46.070;14.492;2022-08-01T02:05:15;25.50;69.90
74153;DHT22;62505;46.070;14.492;2022-08-01T02:07:43;25.50;70.00
74153;DHT22;62505;46.070;14.492;2022-08-01T02:10:11;25.50;70.10
74153;DHT22;62505;46.070;14.492;2022-08-01T02:12:41;25.50;70.00
74153;DHT22;62505;46.070;14.492;2022-08-01T02:15:12;25.50;70.00
74153;DHT22;62505;46.070;14.492;2022-08-01T02:17:41;25.50;70.00
74153;DHT22;62505;46.070;14.492;2022-08-01T02:20:12;25.50;70.00
74153;DHT22;62505;46.070;14.492;2022-08-01T02:22:42;25.50;69.90
74153;DHT22;62505;46.070;14.492;2022-08-01T02:25:15;25.50;70.00
74153;DHT22;62505;46.070;14.492;2022-08-01T02:27:52;25.50;69.80
74153;DHT22;62505;46.070;14.492;2022-08-01T02:30:21;25.50;69.90
74153;DHT22;62505;46.070;14.492;2022-08-01T02:32:52;25.50;69.90
74153;DHT22;62505;46.070;14.492;2022-08-01T02:35:24;25.50;69.80
74153;DHT22;62505;46.070;14.492;2022-08-01T02:37:56;25.50;69.80
74153;DHT22;62505;46.070;14.492;2022-08-01T02:40:24;25.50;69.70
74153;DHT22;62505;46.070;14.492;2022-08-01T02:42:55;25.50;69.60
74153;DHT22;62505;46.070;14.492;2022-08-01T02:45:25;25.50;69.70
74153;DHT22;62505;46.070;14.492;2022-08-01T02:47:57;25.50;69.80
74153;DHT22;62505;46.070;14.492;2022-08-01T02:50:28;25.50;69.50
74153;DHT22;62505;46.070;14.492;2022-08-01T02:52:57;25.50;69.60
74153;DHT22;62505;46.070;14.492;2022-08-01T02:55:25;25.40;69.60
74153;DHT22;62505;46.070;14.492;2022-08-01T02:57:53;25.40;69.50
74153;DHT22;62505;46.070;14.492;2022-08-01T03:00:22;25.50;69.50
74153;DHT22;62505;46.070;14.492;2022-08-01T03:02:51;25.40;70.20
74153;DHT22;62505;46.070;14.492;2022-08-01T03:05:20;25.40;69.40
74153;DHT22;62505;46.070;14.492;2022-08-01T03:07:50;25.40;69.40
74153;DHT22;62505;46.070;14.492;2022-08-01T03:10:18;25.40;69.40
74153;DHT22;62505;46.070;14.492;2022-08-01T03:12:47;25.40;69.20
74153;DHT22;62505;46.070;14.492;2022-08-01T03:15:16;25.40;69.30
74153;DHT22;62505;46.070;14.492;2022-08-01T03:17:44;25.40;69.30
74153;DHT22;62505;46.070;14.492;2022-08-01T03:20:14;25.40;69.40
74153;DHT22;62505;46.070;14.492;2022-08-01T03:22:42;25.40;69.20
74153;DHT22;62505;46.070;14.492;2022-08-01T03:25:12;25.40;69.10
74153;DHT22;62505;46.070;14.492;2022-08-01T03:27:42;25.40;70.40
74153;DHT22;62505;46.070;14.492;2022-08-01T03:30:10;25.40;69.70
74153;DHT22;62505;46.070;14.492;2022-08-01T03:32:38;25.40;70.60
74153;DHT22;62505;46.070;14.492;2022-08-01T03:35:06;25.40;70.40
74153;DHT22;62505;46.070;14.492;2022-08-01T03:37:36;25.40;71.10
74153;DHT22;62505;46.070;14.492;2022-08-01T03:40:08;25.40;70.40
74153;DHT22;62505;46.070;14.492;2022-08-01T03:42:41;25.40;70.60
74153;DHT22;62505;46.070;14.492;2022-08-01T03:45:11;25.40;70.50
74153;DHT22;62505;46.070;14.492;2022-08-01T03:47:43;25.40;70.60
74153;DHT22;62505;46.070;14.492;2022-08-01T03:50:11;25.40;70.40
74153;DHT22;62505;46.070;14.492;2022-08-01T03:52:43;25.40;70.40
74153;DHT22;62505;46.070;14.492;2022-08-01T03:55:11;25.40;70.40
74153;DHT22;62505;46.070;14.492;2022-08-01T03:57:41;25.40;71.10
74153;DHT22;62505;46.070;14.492;2022-08-01T04:00:10;25.40;70.30
74153;DHT22;62505;46.070;14.492;2022-08-01T04:02:38;25.40;70.10
74153;DHT22;62505;46.070;14.492;2022-08-01T04:05:06;25.40;70.40
74153;DHT22;62505;46.070;14.492;2022-08-01T04:07:33;25.40;69.90
74153;DHT22;62505;46.070;14.492;2022-08-01T04:10:01;25.40;70.00
74153;DHT22;62505;46.070;14.492;2022-08-01T04:12:28;25.40;72.20
74153;DHT22;62505;46.070;14.492;2022-08-01T04:14:57;25.40;70.90
74153;DHT22;62505;46.070;14.492;2022-08-01T04:17:24;25.40;73.80
74153;DHT22;62505;46.070;14.492;2022-08-01T04:19:51;25.40;72.60
74153;DHT22;62505;46.070;14.492;2022-08-01T04:22:18;25.40;72.30
74153;DHT22;62505;46.070;14.492;2022-08-01T04:24:49;25.40;72.00
74153;DHT22;62505;46.070;14.492;2022-08-01T04:27:24;25.40;71.50
74153;DHT22;62505;46.070;14.492;2022-08-01T04:29:58;25.30;71.30
74153;DHT22;62505;46.070;14.492;2022-08-01T04:32:26;25.30;70.70
74153;DHT22;62505;46.070;14.492;2022-08-01T04:34:55;25.30;71.30
74153;DHT22;62505;46.070;14.492;2022-08-01T04:37:25;25.30;72.00
74153;DHT22;62505;46.070;14.492;2022-08-01T04:39:53;25.30;70.70
74153;DHT22;62505;46.070;14.492;2022-08-01T04:42:21;25.30;69.60
74153;DHT22;62505;46.070;14.492;2022-08-01T04:44:48;25.30;69.50
74153;DHT22;62505;46.070;14.492;2022-08-01T04:47:18;25.30;69.40
74153;DHT22;62505;46.070;14.492;2022-08-01T04:49:45;25.30;68.90
74153;DHT22;62505;46.070;14.492;2022-08-01T04:52:12;25.30;68.70
74153;DHT22;62505;46.070;14.492;2022-08-01T04:54:39;25.20;69.20
74153;DHT22;62505;46.070;14.492;2022-08-01T04:57:06;25.20;68.70
74153;DHT22;62505;46.070;14.492;2022-08-01T04:59:35;25.20;68.30
74153;DHT22;62505;46.070;14.492;2022-08-01T05:02:07;25.20;68.10
74153;DHT22;62505;46.070;14.492;2022-08-01T05:04:36;25.20;67.70
74153;DHT22;62505;46.070;14.492;2022-08-01T05:07:03;25.20;67.70
74153;DHT22;62505;46.070;14.492;2022-08-01T05:09:31;25.10;67.90
74153;DHT22;62505;46.070;14.492;2022-08-01T05:11:58;25.10;67.30
74153;DHT22;62505;46.070;14.492;2022-08-01T05:14:27;25.10;66.70
74153;DHT22;62505;46.070;14.492;2022-08-01T05:16:57;25.10;66.50
74153;DHT22;62505;46.070;14.492;2022-08-01T05:19:26;25.10;66.60
74153;DHT22;62505;46.070;14.492;2022-08-01T05:21:54;25.10;66.20
74153;DHT22;62505;46.070;14.492;2022-08-01T05:24:22;25.00;66.50
74153;DHT22;62505;46.070;14.492;2022-08-01T05:26:51;25.00;66.40
74153;DHT22;62505;46.070;14.492;2022-08-01T05:29:19;25.00;66.50
74153;DHT22;62505;46.070;14.492;2022-08-01T05:31:46;25.00;66.80
74153;DHT22;62505;46.070;14.492;2022-08-01T05:34:13;25.00;66.70
74153;DHT22;62505;46.070;14.492;2022-08-01T05:36:40;25.00;66.40
74153;DHT22;62505;46.070;14.492;2022-08-01T05:39:08;25.00;66.50
74153;DHT22;62505;46.070;14.492;2022-08-01T05:41:35;25.00;66.40
74153;DHT22;62505;46.070;14.492;2022-08-01T05:44:03;25.00;66.30
74153;DHT22;62505;46.070;14.492;2022-08-01T05:46:30;25.00;66.30
74153;DHT22;62505;46.070;14.492;2022-08-01T05:48:57;25.00;66.30
74153;DHT22;62505;46.070;14.492;2022-08-01T05:51:24;25.00;66.50
74153;DHT22;62505;46.070;14.492;2022-08-01T05:53:51;25.00;66.80
74153;DHT22;62505;46.070;14.492;2022-08-01T05:56:20;25.00;66.60
74153;DHT22;62505;46.070;14.492;2022-08-01T05:58:47;25.00;66.60
74153;DHT22;62505;46.070;14.492;2022-08-01T06:01:14;25.00;66.30
74153;DHT22;62505;46.070;14.492;2022-08-01T06:03:42;25.00;66.50
74153;DHT22;62505;46.070;14.492;2022-08-01T06:06:09;25.00;66.40
74153;DHT22;62505;46.070;14.492;2022-08-01T06:08:36;25.00;66.40
74153;DHT22;62505;46.070;14.492;2022-08-01T06:11:03;25.00;66.70
74153;DHT22;62505;46.070;14.492;2022-08-01T06:13:31;25.00;66.00
74153;DHT22;62505;46.070;14.492;2022-08-01T06:15:58;25.00;66.10
74153;DHT22;62505;46.070;14.492;2022-08-01T06:18:25;25.00;66.20
74153;DHT22;62505;46.070;14.492;2022-08-01T06:20:52;25.00;66.40
74153;DHT22;62505;46.070;14.492;2022-08-01T06:23:20;25.00;66.30
74153;DHT22;62505;46.070;14.492;2022-08-01T06:25:47;25.00;66.20
74153;DHT22;62505;46.070;14.492;2022-08-01T06:28:14;25.00;66.30
74153;DHT22;62505;46.070;14.492;2022-08-01T06:30:42;25.00;66.40
74153;DHT22;62505;46.070;14.492;2022-08-01T06:33:09;25.00;66.00
74153;DHT22;62505;46.070;14.492;2022-08-01T06:35:36;25.00;65.80
74153;DHT22;62505;46.070;14.492;2022-08-01T06:38:03;25.00;66.00
74153;DHT22;62505;46.070;14.492;2022-08-01T06:40:30;24.90;65.90
74153;DHT22;62505;46.070;14.492;2022-08-01T06:42:57;25.00;65.90
74153;DHT22;62505;46.070;14.492;2022-08-01T06:45:24;25.00;65.80
74153;DHT22;62505;46.070;14.492;2022-08-01T06:47:53;25.00;66.00
74153;DHT22;62505;46.070;14.492;2022-08-01T06:50:20;24.90;65.30
74153;DHT22;62505;46.070;14.492;2022-08-01T06:52:47;24.80;65.80
74153;DHT22;62505;46.070;14.492;2022-08-01T06:55:14;24.80;66.20
74153;DHT22;62505;46.070;14.492;2022-08-01T06:57:51;24.80;66.20
74153;DHT22;62505;46.070;14.492;2022-08-01T07:00:19;24.80;66.00
74153;DHT22;62505;46.070;14.492;2022-08-01T07:02:48;24.90;66.40
74153;DHT22;62505;46.070;14.492;2022-08-01T07:05:17;24.80;66.30
74153;DHT22;62505;46.070;14.492;2022-08-01T07:07:44;24.80;66.40
74153;DHT22;62505;46.070;14.492;2022-08-01T07:10:11;24.80;66.60
74153;DHT22;62505;46.070;14.492;2022-08-01T07:12:38;24.90;66.70
74153;DHT22;62505;46.070;14.492;2022-08-01T07:15:07;24.90;66.20
74153;DHT22;62505;46.070;14.492;2022-08-01T07:17:37;24.90;66.20
74153;DHT22;62505;46.070;14.492;2022-08-01T07:20:06;25.00;67.00
74153;DHT22;62505;46.070;14.492;2022-08-01T07:22:34;25.00;66.60
74153;DHT22;62505;46.070;14.492;2022-08-01T07:25:01;25.00;67.90
74153;DHT22;62505;46.070;14.492;2022-08-01T07:27:28;25.00;67.80
74153;DHT22;62505;46.070;14.492;2022-08-01T07:29:55;25.00;68.60
74153;DHT22;62505;46.070;14.492;2022-08-01T07:32:22;25.10;70.00
74153;DHT22;62505;46.070;14.492;2022-08-01T07:34:49;25.10;72.40
74153;DHT22;62505;46.070;14.492;2022-08-01T07:37:16;25.10;72.80
74153;DHT22;62505;46.070;14.492;2022-08-01T07:39:44;25.10;72.60
74153;DHT22;62505;46.070;14.492;2022-08-01T07:42:11;25.20;73.90
74153;DHT22;62505;46.070;14.492;2022-08-01T07:44:38;25.20;74.90
74153;DHT22;62505;46.070;14.492;2022-08-01T07:47:05;25.20;74.90
74153;DHT22;62505;46.070;14.492;2022-08-01T07:49:33;25.20;76.00
74153;DHT22;62505;46.070;14.492;2022-08-01T07:51:59;25.30;76.70
74153;DHT22;62505;46.070;14.492;2022-08-01T07:54:26;25.30;75.40
74153;DHT22;62505;46.070;14.492;2022-08-01T07:56:55;25.30;77.10
74153;DHT22;62505;46.070;14.492;2022-08-01T07:59:22;25.30;77.40
74153;DHT22;62505;46.070;14.492;2022-08-01T08:01:50;25.30;77.30
74153;DHT22;62505;46.070;14.492;2022-08-01T08:04:17;25.30;75.90
74153;DHT22;62505;46.070;14.492;2022-08-01T08:06:44;25.30;75.10
74153;DHT22;62505;46.070;14.492;2022-08-01T08:09:13;25.30;75.90
74153;DHT22;62505;46.070;14.492;2022-08-01T08:11:41;25.30;75.40
74153;DHT22;62505;46.070;14.492;2022-08-01T08:14:10;25.30;75.00
74153;DHT22;62505;46.070;14.492;2022-08-01T08:16:37;25.30;74.00
74153;DHT22;62505;46.070;14.492;2022-08-01T08:19:04;25.30;73.90
74153;DHT22;62505;46.070;14.492;2022-08-01T08:21:31;25.30;73.40
74153;DHT22;62505;46.070;14.492;2022-08-01T08:23:58;25.30;73.10
74153;DHT22;62505;46.070;14.492;2022-08-01T08:26:43;25.30;71.30
74153;DHT22;62505;46.070;14.492;2022-08-01T08:29:11;25.30;71.30
74153;DHT22;62505;46.070;14.492;2022-08-01T08:31:38;25.30;71.20
74153;DHT22;62505;46.070;14.492;2022-08-01T08:34:05;25.30;70.80
74153;DHT22;62505;46.070;14.492;2022-08-01T08:36:32;25.30;70.30
74153;DHT22;62505;46.070;14.492;2022-08-01T08:38:59;25.30;71.50
74153;DHT22;62505;46.070;14.492;2022-08-01T08:41:28;25.30;68.90
74153;DHT22;62505;46.070;14.492;2022-08-01T08:43:55;25.30;66.70
74153;DHT22;62505;46.070;14.492;2022-08-01T08:46:25;25.30;67.30
74153;DHT22;62505;46.070;14.492;2022-08-01T08:48:53;25.30;67.60
74153;DHT22;62505;46.070;14.492;2022-08-01T08:51:21;25.30;68.60
74153;DHT22;62505;46.070;14.492;2022-08-01T08:53:51;25.30;67.30
74153;DHT22;62505;46.070;14.492;2022-08-01T08:56:20;25.30;67.60
74153;DHT22;62505;46.070;14.492;2022-08-01T08:58:48;25.30;64.90
74153;DHT22;62505;46.070;14.492;2022-08-01T09:01:15;25.30;64.50
74153;DHT22;62505;46.070;14.492;2022-08-01T09:03:44;25.30;64.60
74153;DHT22;62505;46.070;14.492;2022-08-01T09:06:11;25.30;64.50
74153;DHT22;62505;46.070;14.492;2022-08-01T09:08:38;25.30;66.20
74153;DHT22;62505;46.070;14.492;2022-08-01T09:11:05;25.30;65.90
74153;DHT22;62505;46.070;14.492;2022-08-01T09:13:32;25.30;64.80
74153;DHT22;62505;46.070;14.492;2022-08-01T09:15:59;25.30;65.20
74153;DHT22;62505;46.070;14.492;2022-08-01T09:18:31;25.30;64.10
74153;DHT22;62505;46.070;14.492;2022-08-01T09:21:15;25.30;63.40
74153;DHT22;62505;46.070;14.492;2022-08-01T09:23:45;25.30;62.70
74153;DHT22;62505;46.070;14.492;2022-08-01T09:26:13;25.30;63.50
74153;DHT22;62505;46.070;14.492;2022-08-01T09:28:41;25.30;61.80
74153;DHT22;62505;46.070;14.492;2022-08-01T09:31:09;25.40;61.70
74153;DHT22;62505;46.070;14.492;2022-08-01T09:33:52;25.40;61.00
74153;DHT22;62505;46.070;14.492;2022-08-01T09:36:21;25.40;60.70
74153;DHT22;62505;46.070;14.492;2022-08-01T09:38:49;25.50;60.30
74153;DHT22;62505;46.070;14.492;2022-08-01T09:41:17;25.50;60.10
74153;DHT22;62505;46.070;14.492;2022-08-01T09:43:54;25.50;60.10
74153;DHT22;62505;46.070;14.492;2022-08-01T09:46:21;25.50;60.70
74153;DHT22;62505;46.070;14.492;2022-08-01T09:48:56;25.50;60.80
74153;DHT22;62505;46.070;14.492;2022-08-01T09:51:32;25.50;60.70
74153;DHT22;62505;46.070;14.492;2022-08-01T09:54:00;25.50;61.20
74153;DHT22;62505;46.070;14.492;2022-08-01T09:56:36;25.40;61.00
74153;DHT22;62505;46.070;14.492;2022-08-01T09:59:04;25.50;61.50
74153;DHT22;62505;46.070;14.492;2022-08-01T10:01:42;25.50;61.50
74153;DHT22;62505;46.070;14.492;2022-08-01T10:04:11;25.40;61.80
74153;DHT22;62505;46.070;14.492;2022-08-01T10:06:41;25.50;61.30
74153;DHT22;62505;46.070;14.492;2022-08-01T10:09:10;25.60;60.30
74153;DHT22;62505;46.070;14.492;2022-08-01T10:11:38;25.60;60.20
74153;DHT22;62505;46.070;14.492;2022-08-01T10:14:06;25.60;61.00
74153;DHT22;62505;46.070;14.492;2022-08-01T10:16:35;25.50;61.00
74153;DHT22;62505;46.070;14.492;2022-08-01T10:19:02;25.50;61.40
74153;DHT22;62505;46.070;14.492;2022-08-01T10:21:32;25.50;61.20
74153;DHT22;62505;46.070;14.492;2022-08-01T10:24:02;25.50;60.40
74153;DHT22;62505;46.070;14.492;2022-08-01T10:26:32;25.60;59.80
74153;DHT22;62505;46.070;14.492;2022-08-01T10:29:00;25.60;60.00
74153;DHT22;62505;46.070;14.492;2022-08-01T10:31:28;25.60;60.30
74153;DHT22;62505;46.070;14.492;2022-08-01T10:33:58;25.60;60.30
74153;DHT22;62505;46.070;14.492;2022-08-01T10:36:25;25.60;60.00
74153;DHT22;62505;46.070;14.492;2022-08-01T10:38:54;25.60;60.40
74153;DHT22;62505;46.070;14.492;2022-08-01T10:41:24;25.60;61.20
74153;DHT22;62505;46.070;14.492;2022-08-01T10:43:52;25.60;63.40
74153;DHT22;62505;46.070;14.492;2022-08-01T10:46:20;25.50;63.20
74153;DHT22;62505;46.070;14.492;2022-08-01T10:48:51;25.50;63.70
74153;DHT22;62505;46.070;14.492;2022-08-01T10:51:21;25.50;63.70
74153;DHT22;62505;46.070;14.492;2022-08-01T10:53:51;25.50;64.10
74153;DHT22;62505;46.070;14.492;2022-08-01T10:56:18;25.50;64.30
74153;DHT22;62505;46.070;14.492;2022-08-01T10:58:48;25.50;65.40
74153;DHT22;62505;46.070;14.492;2022-08-01T11:01:21;25.60;64.90
74153;DHT22;62505;46.070;14.492;2022-08-01T11:04:06;25.60;65.10
74153;DHT22;62505;46.070;14.492;2022-08-01T11:06:52;25.60;65.40
74153;DHT22;62505;46.070;14.492;2022-08-01T11:09:26;25.60;65.50
74153;DHT22;62505;46.070;14.492;2022-08-01T11:11:58;25.60;65.50
74153;DHT22;62505;46.070;14.492;2022-08-01T11:14:27;25.60;65.70
74153;DHT22;62505;46.070;14.492;2022-08-01T11:16:55;25.60;65.90
74153;DHT22;62505;46.070;14.492;2022-08-01T11:19:25;25.60;66.00
74153;DHT22;62505;46.070;14.492;2022-08-01T11:22:12;25.60;66.10
74153;DHT22;62505;46.070;14.492;2022-08-01T11:24:55;25.60;66.20
74153;DHT22;62505;46.070;14.492;2022-08-01T11:27:26;25.70;66.50
74153;DHT22;62505;46.070;14.492;2022-08-01T11:30:23;25.70;66.60
74153;DHT22;62505;46.070;14.492;2022-08-01T11:32:53;25.70;66.70
74153;DHT22;62505;46.070;14.492;2022-08-01T11:35:21;25.70;66.90
74153;DHT22;62505;46.070;14.492;2022-08-01T11:37:49;25.70;66.80
74153;DHT22;62505;46.070;14.492;2022-08-01T11:40:19;25.70;67.10
74153;DHT22;62505;46.070;14.492;2022-08-01T11:42:47;25.70;67.10
74153;DHT22;62505;46.070;14.492;2022-08-01T11:45:14;25.70;67.30
74153;DHT22;62505;46.070;14.492;2022-08-01T11:47:47;25.70;67.40
74153;DHT22;62505;46.070;14.492;2022-08-01T11:50:32;25.70;67.50
74153;DHT22;62505;46.070;14.492;2022-08-01T11:53:02;25.70;67.60
74153;DHT22;62505;46.070;14.492;2022-08-01T11:55:30;25.70;67.60
74153;DHT22;62505;46.070;14.492;2022-08-01T11:58:00;25.70;67.40
74153;DHT22;62505;46.070;14.492;2022-08-01T12:00:28;25.60;67.40
74153;DHT22;62505;46.070;14.492;2022-08-01T12:03:01;25.70;67.90
74153;DHT22;62505;46.070;14.492;2022-08-01T12:05:29;25.70;68.10
74153;DHT22;62505;46.070;14.492;2022-08-01T12:07:59;25.70;68.10
74153;DHT22;62505;46.070;14.492;2022-08-01T12:10:29;25.70;68.10
74153;DHT22;62505;46.070;14.492;2022-08-01T12:13:00;25.80;68.30
74153;DHT22;62505;46.070;14.492;2022-08-01T12:15:30;25.80;68.30
74153;DHT22;62505;46.070;14.492;2022-08-01T12:18:00;25.70;68.40
74153;DHT22;62505;46.070;14.492;2022-08-01T12:20:28;25.80;68.30
74153;DHT22;62505;46.070;14.492;2022-08-01T12:22:56;25.80;68.40
74153;DHT22;62505;46.070;14.492;2022-08-01T12:25:24;25.80;68.40
74153;DHT22;62505;46.070;14.492;2022-08-01T12:27:52;25.80;68.50
74153;DHT22;62505;46.070;14.492;2022-08-01T12:30:20;25.80;68.60
74153;DHT22;62505;46.070;14.492;2022-08-01T12:32:49;25.80;68.60
74153;DHT22;62505;46.070;14.492;2022-08-01T12:35:20;25.80;68.80
74153;DHT22;62505;46.070;14.492;2022-08-01T12:37:50;25.80;68.80
74153;DHT22;62505;46.070;14.492;2022-08-01T12:40:19;25.80;68.90
74153;DHT22;62505;46.070;14.492;2022-08-01T12:42:48;25.80;69.00
74153;DHT22;62505;46.070;14.492;2022-08-01T12:45:19;25.80;69.00
74153;DHT22;62505;46.070;14.492;2022-08-01T12:47:47;25.80;69.10
74153;DHT22;62505;46.070;14.492;2022-08-01T12:50:16;25.90;70.00
74153;DHT22;62505;46.070;14.492;2022-08-01T12:52:45;25.90;69.20
74153;DHT22;62505;46.070;14.492;2022-08-01T12:55:14;25.80;69.10
74153;DHT22;62505;46.070;14.492;2022-08-01T12:57:44;25.80;69.00
74153;DHT22;62505;46.070;14.492;2022-08-01T13:00:21;25.80;69.00
74153;DHT22;62505;46.070;14.492;2022-08-01T13:02:51;25.80;69.00
74153;DHT22;62505;46.070;14.492;2022-08-01T13:05:26;25.80;69.00
74153;DHT22;62505;46.070;14.492;2022-08-01T13:07:54;25.80;69.00
74153;DHT22;62505;46.070;14.492;2022-08-01T13:10:26;25.80;69.10
74153;DHT22;62505;46.070;14.492;2022-08-01T13:12:55;25.90;68.70
74153;DHT22;62505;46.070;14.492;2022-08-01T13:15:26;25.90;69.20
74153;DHT22;62505;46.070;14.492;2022-08-01T13:17:54;25.90;68.50
74153;DHT22;62505;46.070;14.492;2022-08-01T13:20:22;25.90;68.80
74153;DHT22;62505;46.070;14.492;2022-08-01T13:22:50;25.90;68.80
74153;DHT22;62505;46.070;14.492;2022-08-01T13:25:19;25.90;68.50
74153;DHT22;62505;46.070;14.492;2022-08-01T13:27:46;25.90;68.50
74153;DHT22;62505;46.070;14.492;2022-08-01T13:30:14;25.80;68.30
74153;DHT22;62505;46.070;14.492;2022-08-01T13:32:42;25.80;68.30
74153;DHT22;62505;46.070;14.492;2022-08-01T13:35:11;25.80;68.30
74153;DHT22;62505;46.070;14.492;2022-08-01T13:37:40;25.80;68.40
74153;DHT22;62505;46.070;14.492;2022-08-01T13:40:09;25.80;68.60
74153;DHT22;62505;46.070;14.492;2022-08-01T13:42:37;25.80;68.70
74153;DHT22;62505;46.070;14.492;2022-08-01T13:45:05;25.90;68.90
74153;DHT22;62505;46.070;14.492;2022-08-01T13:47:36;25.90;69.00
74153;DHT22;62505;46.070;14.492;2022-08-01T13:50:03;25.90;69.10
74153;DHT22;62505;46.070;14.492;2022-08-01T13:52:30;25.90;69.20
74153;DHT22;62505;46.070;14.492;2022-08-01T13:54:58;25.90;69.20
74153;DHT22;62505;46.070;14.492;2022-08-01T13:57:25;25.90;69.30
74153;DHT22;62505;46.070;14.492;2022-08-01T13:59:54;25.90;69.40
74153;DHT22;62505;46.070;14.492;2022-08-01T14:02:23;25.90;69.30
74153;DHT22;62505;46.070;14.492;2022-08-01T14:04:50;25.90;69.20
74153;DHT22;62505;46.070;14.492;2022-08-01T14:07:17;25.90;69.60
74153;DHT22;62505;46.070;14.492;2022-08-01T14:09:44;25.80;69.50
74153;DHT22;62505;46.070;14.492;2022-08-01T14:12:11;25.90;69.80
74153;DHT22;62505;46.070;14.492;2022-08-01T14:14:38;25.90;70.20
74153;DHT22;62505;46.070;14.492;2022-08-01T14:17:06;25.90;70.20
74153;DHT22;62505;46.070;14.492;2022-08-01T14:19:33;25.90;70.30
74153;DHT22;62505;46.070;14.492;2022-08-01T14:22:00;25.90;70.30
74153;DHT22;62505;46.070;14.492;2022-08-01T14:24:27;25.90;71.00
74153;DHT22;62505;46.070;14.492;2022-08-01T14:26:54;25.90;70.30
74153;DHT22;62505;46.070;14.492;2022-08-01T14:29:21;25.90;70.40
74153;DHT22;62505;46.070;14.492;2022-08-01T14:31:48;26.00;70.50
74153;DHT22;62505;46.070;14.492;2022-08-01T14:34:16;25.90;70.50
74153;DHT22;62505;46.070;14.492;2022-08-01T14:36:43;26.00;70.70
74153;DHT22;62505;46.070;14.492;2022-08-01T14:39:10;26.00;70.60
74153;DHT22;62505;46.070;14.492;2022-08-01T14:41:38;26.00;70.60
74153;DHT22;62505;46.070;14.492;2022-08-01T14:44:05;26.00;70.70
74153;DHT22;62505;46.070;14.492;2022-08-01T14:46:32;26.00;70.80
74153;DHT22;62505;46.070;14.492;2022-08-01T14:48:58;26.00;70.90
74153;DHT22;62505;46.070;14.492;2022-08-01T14:51:27;26.00;70.90
74153;DHT22;62505;46.070;14.492;2022-08-01T14:53:58;26.00;71.00
74153;DHT22;62505;46.070;14.492;2022-08-01T14:56:26;26.00;71.10
74153;DHT22;62505;46.070;14.492;2022-08-01T14:58:53;26.00;71.00
74153;DHT22;62505;46.070;14.492;2022-08-01T15:01:20;26.00;71.00
74153;DHT22;62505;46.070;14.492;2022-08-01T15:03:47;26.00;70.90
74153;DHT22;62505;46.070;14.492;2022-08-01T15:06:16;26.00;70.90
74153;DHT22;62505;46.070;14.492;2022-08-01T15:08:44;26.00;70.90
74153;DHT22;62505;46.070;14.492;2022-08-01T15:11:11;25.90;70.90
74153;DHT22;62505;46.070;14.492;2022-08-01T15:13:38;25.90;70.90
74153;DHT22;62505;46.070;14.492;2022-08-01T15:16:05;25.90;70.90
74153;DHT22;62505;46.070;14.492;2022-08-01T15:18:32;25.90;71.00
74153;DHT22;62505;46.070;14.492;2022-08-01T15:20:59;25.90;71.00
74153;DHT22;62505;46.070;14.492;2022-08-01T15:23:26;25.90;71.00
74153;DHT22;62505;46.070;14.492;2022-08-01T15:25:54;25.90;71.00